Time;durP1;ratioP1;P1;durP2;ratioP2;P2;SDS_P1;SDS_P2;PMS_P1;PMS_P2;Temp;Humidity;BMP_temperature;BMP_pressure;BME280_temperature;BME280_humidity;BME280_pressure;Samples;Min_cycle;Max_cycle;Signal;HPM_P1;HPM_P2
2022/01/04 00:00:48;;;;;;;45.57;16.67;;;;;;;11.59;nan;101987.91;6102456;23;20952;-87
2022/01/04 00:03:19;;;;;;;44.87;18.00;;;;;;;11.67;nan;101987.91;6078713;23;20473;-88
2022/01/04 00:05:46;;;;;;;47.43;16.50;;;;;;;11.68;nan;101981.41;6150683;23;20414;-89
2022/01/04 00:08:15;;;;;;;46.60;17.07;;;;;;;11.71;nan;101983.81;6077957;23;20473;-88
2022/01/04 00:10:43;;;;;;;52.80;19.00;;;;;;;11.69;nan;101991.34;6126215;23;20413;-88
2022/01/04 00:13:24;;;;;;;41.03;16.33;;;;;;;11.71;nan;101985.69;6126478;23;20493;-88
2022/01/04 00:15:56;;;;;;;39.20;14.43;;;;;;;11.69;nan;101991.34;6083258;23;20410;-88
2022/01/04 00:18:24;;;;;;;42.40;10.97;;;;;;;11.62;nan;101984.81;6125867;23;20980;-88
2022/01/04 00:20:53;;;;;;;35.33;11.77;;;;;;;11.68;nan;101983.28;6102314;23;20936;-88
2022/01/04 00:23:21;;;;;;;33.13;11.30;;;;;;;11.64;nan;101987.41;6102477;23;20483;-89
2022/01/04 00:25:49;;;;;;;22.50;9.17;;;;;;;11.67;nan;101976.97;6125518;23;20955;-87
2022/01/04 00:28:17;;;;;;;17.10;7.67;;;;;;;11.66;nan;101986.22;6125952;23;20489;-89
2022/01/04 00:30:44;;;;;;;24.40;7.10;;;;;;;11.65;nan;101989.13;6102008;23;20406;-88
2022/01/04 00:33:13;;;;;;;19.47;7.37;;;;;;;11.56;nan;101971.81;6077992;23;20413;-89
2022/01/04 00:35:41;;;;;;;14.53;6.70;;;;;;;11.60;nan;101972.31;6078253;23;21008;-88
2022/01/04 00:38:10;;;;;;;14.50;6.50;;;;;;;11.60;nan;101969.59;6077766;23;20446;-89
2022/01/04 00:40:39;;;;;;;14.83;6.07;;;;;;;11.57;nan;101959.84;6126798;23;20407;-89
2022/01/04 00:43:07;;;;;;;14.20;5.47;;;;;;;11.58;nan;101967.03;6078006;23;20792;-89
2022/01/04 00:45:36;;;;;;;15.23;5.97;;;;;;;11.51;nan;101944.09;6054290;23;20406;-88
2022/01/04 00:50:34;;;;;;;14.80;5.70;;;;;;;11.55;nan;101939.97;6078056;23;20410;-88
2022/01/04 00:53:03;;;;;;;11.73;5.50;;;;;;;11.63;nan;101948.19;6054448;23;20410;-88
2022/01/04 00:55:31;;;;;;;15.33;4.90;;;;;;;11.58;nan;101934.16;6078063;23;20486;-89
2022/01/04 00:58:00;;;;;;;11.43;5.57;;;;;;;11.68;nan;101940.34;6054265;23;20442;-89
2022/01/04 01:00:33;;;;;;;11.10;5.47;;;;;;;11.70;nan;101941.03;6103182;23;20493;-88
2022/01/04 01:03:01;;;;;;;10.80;5.13;;;;;;;11.74;nan;101936.03;6054417;23;20414;-88
2022/01/04 01:05:29;;;;;;;11.83;5.20;;;;;;;11.73;nan;101929.72;6054501;23;20514;-88
2022/01/04 01:07:57;;;;;;;18.33;6.50;;;;;;;11.69;nan;101913.81;6077745;23;20410;-88
2022/01/04 01:10:43;;;;;;;17.23;7.30;;;;;;;11.74;nan;101912.25;6101416;23;20497;-88
2022/01/04 01:13:11;;;;;;;23.47;8.20;;;;;;;11.79;nan;101913.66;6084922;23;20445;-88
2022/01/04 01:15:41;;;;;;;16.77;7.80;;;;;;;11.81;nan;101912.44;6077177;23;20421;-88
2022/01/04 01:18:09;;;;;;;18.87;8.77;;;;;;;11.84;nan;101909.38;6077252;23;20442;-88
2022/01/04 01:20:37;;;;;;;21.30;8.40;;;;;;;11.88;nan;101907.16;6077488;23;20934;-89
2022/01/04 01:23:05;;;;;;;24.10;7.00;;;;;;;11.85;nan;101902.88;6076446;23;20540;-88
2022/01/04 01:25:34;;;;;;;15.20;7.30;;;;;;;11.86;nan;101900.97;6037384;23;20496;-87
2022/01/04 01:28:02;;;;;;;20.47;8.00;;;;;;;11.90;nan;101903.19;6014591;23;20500;-88
2022/01/04 01:30:33;;;;;;;20.20;7.97;;;;;;;11.88;nan;101894.31;5990944;23;20413;-89
2022/01/04 01:33:03;;;;;;;18.33;7.60;;;;;;;11.91;nan;101893.09;6014952;23;20405;-89
2022/01/04 01:35:33;;;;;;;18.20;7.03;;;;;;;11.90;nan;101897.72;5968738;23;21032;-89
2022/01/04 01:38:01;;;;;;;16.87;8.00;;;;;;;11.89;nan;101885.06;6017984;23;21016;-88
2022/01/04 01:40:29;;;;;;;23.93;7.40;;;;;;;11.95;nan;101898.03;6042862;23;20907;-88
2022/01/04 01:42:57;;;;;;;24.60;7.90;;;;;;;11.93;nan;101885.56;6053919;23;20429;-88
2022/01/04 01:45:25;;;;;;;19.27;8.10;;;;;;;11.96;nan;101883.31;6101492;23;20386;-88
2022/01/04 01:47:53;;;;;;;24.93;8.40;;;;;;;11.98;nan;101866.69;6101349;23;20477;-89
2022/01/04 01:50:21;;;;;;;27.40;7.90;;;;;;;11.96;nan;101860.53;6101533;23;20473;-89
2022/01/04 01:52:50;;;;;;;20.37;7.90;;;;;;;11.98;nan;101869.44;6101082;23;20852;-89
2022/01/04 01:55:19;;;;;;;29.80;9.07;;;;;;;11.90;nan;101842.94;6078123;23;20406;-88
2022/01/04 01:57:47;;;;;;;20.17;8.47;;;;;;;12.00;nan;101875.59;6101093;23;20434;-89
2022/01/04 02:00:17;;;;;;;16.33;7.33;;;;;;;11.99;nan;101860.19;6077378;23;20422;-89
2022/01/04 02:02:45;;;;;;;18.73;7.60;;;;;;;11.96;nan;101850.44;6101251;23;20493;-87
2022/01/04 02:05:13;;;;;;;21.00;9.00;;;;;;;11.93;nan;101839.81;6125454;23;20537;-88
2022/01/04 02:07:42;;;;;;;24.43;8.63;;;;;;;12.01;nan;101852.66;6100860;23;20478;-88
2022/01/04 02:10:10;;;;;;;18.07;6.90;;;;;;;12.03;nan;101847.84;6101180;23;20485;-88
2022/01/04 02:12:44;;;;;;;11.47;5.97;;;;;;;12.00;nan;101837.25;6100979;23;20864;-88
2022/01/04 02:15:22;;;;;;;15.97;5.60;;;;;;;12.08;nan;101842.69;6102224;23;20407;-88
2022/01/04 02:17:49;;;;;;;16.50;7.57;;;;;;;12.09;nan;101849.91;6103127;23;20446;-88
2022/01/04 02:20:17;;;;;;;13.20;5.87;;;;;;;12.12;nan;101855.03;6100472;23;20406;-87
2022/01/04 02:22:45;;;;;;;13.00;6.67;;;;;;;12.12;nan;101846.81;6101136;23;20406;-88
2022/01/04 02:25:13;;;;;;;21.40;6.50;;;;;;;12.13;nan;101839.41;6100989;23;20864;-88
2022/01/04 02:27:40;;;;;;;13.03;5.83;;;;;;;12.10;nan;101830.53;6100520;23;20743;-87
2022/01/04 02:30:33;;;;;;;15.40;5.63;;;;;;;12.17;nan;101849.00;6126159;23;20485;-88
2022/01/04 02:33:01;;;;;;;11.00;5.00;;;;;;;12.16;nan;101830.84;6148361;23;20406;-88
2022/01/04 02:35:33;;;;;;;9.50;4.67;;;;;;;12.15;nan;101832.72;6124864;23;20402;-88
2022/01/04 02:38:03;;;;;;;10.73;5.60;;;;;;;12.17;nan;101830.66;6102185;23;20442;-88
2022/01/04 02:40:31;;;;;;;16.37;5.20;;;;;;;12.20;nan;101832.19;6076544;23;20968;-88
2022/01/04 02:42:59;;;;;;;9.03;4.90;;;;;;;12.22;nan;101828.25;6077240;23;20748;-88
2022/01/04 02:45:27;;;;;;;16.60;5.93;;;;;;;12.19;nan;101817.63;6077363;23;20552;-89
2022/01/04 02:47:55;;;;;;;18.07;6.20;;;;;;;12.21;nan;101826.53;6077181;23;20415;-88
2022/01/04 02:50:32;;;;;;;21.43;7.33;;;;;;;12.15;nan;101808.06;6054004;23;20409;-89
2022/01/04 02:52:59;;;;;;;15.83;7.53;;;;;;;12.20;nan;101813.88;6053073;23;20405;-89
2022/01/04 02:55:27;;;;;;;16.00;6.73;;;;;;;12.26;nan;101824.13;6076976;23;20417;-90
2022/01/04 02:57:56;;;;;;;15.13;6.10;;;;;;;12.24;nan;101822.59;6053847;23;20861;-89
2022/01/04 03:00:25;;;;;;;16.50;6.60;;;;;;;12.26;nan;101824.13;6077460;23;20904;-89
2022/01/04 03:02:55;;;;;;;17.00;6.33;;;;;;;12.28;nan;101813.00;6054246;23;20410;-89
2022/01/04 03:05:22;;;;;;;24.67;7.13;;;;;;;12.28;nan;101822.06;6053837;23;20410;-89
2022/01/04 03:07:50;;;;;;;17.10;6.83;;;;;;;12.24;nan;101803.41;6053186;23;20410;-90
2022/01/04 03:10:18;;;;;;;16.20;6.30;;;;;;;12.33;nan;101808.66;6077500;23;20402;-89
2022/01/04 03:12:45;;;;;;;16.17;6.47;;;;;;;12.30;nan;101803.56;6053381;23;20481;-89
2022/01/04 03:15:14;;;;;;;19.80;6.40;;;;;;;12.32;nan;101806.09;6099923;23;20410;-89
2022/01/04 03:17:42;;;;;;;19.27;5.57;;;;;;;12.35;nan;101812.06;6100223;23;20422;-89
2022/01/04 03:20:10;;;;;;;22.43;6.50;;;;;;;12.33;nan;101805.91;6077192;23;20414;-90
2022/01/04 03:22:38;;;;;;;21.30;6.80;;;;;;;12.33;nan;101803.16;6075911;23;20913;-89
2022/01/04 03:25:06;;;;;;;21.27;7.60;;;;;;;12.35;nan;101803.84;6076892;23;20763;-89
2022/01/04 03:27:33;;;;;;;20.03;6.17;;;;;;;12.35;nan;101803.84;6053736;23;20402;-89
2022/01/04 03:30:01;;;;;;;16.40;6.43;;;;;;;12.36;nan;101796.47;6077052;23;20482;-89
2022/01/04 03:32:29;;;;;;;20.37;6.37;;;;;;;12.34;nan;101788.44;6077554;23;20843;-89
2022/01/04 03:34:56;;;;;;;17.97;6.43;;;;;;;12.36;nan;101789.09;6055099;23;20869;-89
2022/01/04 03:37:24;;;;;;;13.17;5.33;;;;;;;12.34;nan;101782.94;6078868;23;20901;-89
2022/01/04 03:39:52;;;;;;;19.90;6.53;;;;;;;12.38;nan;101795.28;6099062;23;20541;-90
2022/01/04 03:42:20;;;;;;;17.67;5.80;;;;;;;12.34;nan;101777.47;6078636;23;20909;-89
2022/01/04 03:44:47;;;;;;;17.87;6.40;;;;;;;12.33;nan;101778.50;6126489;23;20484;-89
2022/01/04 03:47:15;;;;;;;18.07;6.10;;;;;;;12.38;nan;101776.06;6126391;23;20553;-89
2022/01/04 03:49:43;;;;;;;20.90;6.10;;;;;;;12.37;nan;101776.25;6126447;23;20493;-90
2022/01/04 03:52:11;;;;;;;21.33;6.80;;;;;;;12.31;nan;101768.78;6102470;23;20549;-88
2022/01/04 03:54:39;;;;;;;24.13;6.20;;;;;;;12.37;nan;101782.59;6102252;23;20433;-89
2022/01/04 03:57:07;;;;;;;17.27;5.90;;;;;;;12.36;nan;101769.06;6078133;23;20410;-89
2022/01/04 03:59:35;;;;;;;16.17;6.73;;;;;;;12.33;nan;101770.28;6125977;23;20547;-90
2022/01/04 04:02:03;;;;;;;15.47;5.53;;;;;;;12.36;nan;101774.53;6078620;23;20410;-89
2022/01/04 04:04:31;;;;;;;19.63;6.00;;;;;;;12.33;nan;101770.28;6126932;23;20492;-90
2022/01/04 04:06:58;;;;;;;13.93;5.30;;;;;;;12.36;nan;101769.91;6102199;23;20406;-89
2022/01/04 04:09:26;;;;;;;15.80;6.90;;;;;;;12.34;nan;101774.72;6102256;23;20898;-89
2022/01/04 04:11:54;;;;;;;18.20;6.07;;;;;;;12.40;nan;101776.75;6102205;23;20418;-88
2022/01/04 04:14:22;;;;;;;15.30;5.80;;;;;;;12.38;nan;101770.59;6102453;23;20485;-89
2022/01/04 04:17:09;;;;;;;21.40;6.57;;;;;;;12.34;nan;101761.03;6126397;23;20390;-89
2022/01/04 04:19:38;;;;;;;18.73;6.00;;;;;;;12.42;nan;101777.44;6125845;23;20517;-88
2022/01/04 04:22:06;;;;;;;16.43;5.30;;;;;;;12.43;nan;101765.44;6014748;23;20950;-88
2022/01/04 04:24:34;;;;;;;17.23;6.03;;;;;;;12.42;nan;101757.38;5968709;23;20401;-89
2022/01/04 04:27:03;;;;;;;14.97;5.93;;;;;;;12.40;nan;101749.34;5991658;23;20504;-89
2022/01/04 04:29:30;;;;;;;21.00;5.87;;;;;;;12.42;nan;101749.16;6014473;23;20409;-89
2022/01/04 04:31:59;;;;;;;16.80;5.63;;;;;;;12.41;nan;101742.81;5992304;23;20513;-89
2022/01/04 04:34:26;;;;;;;21.53;6.60;;;;;;;12.43;nan;101734.41;6014789;23;20570;-89
2022/01/04 04:36:54;;;;;;;20.27;6.20;;;;;;;12.36;nan;101726.06;6014687;23;20443;-89
2022/01/04 04:39:22;;;;;;;15.57;5.23;;;;;;;12.42;nan;101730.81;5987596;23;20456;-89
2022/01/04 04:41:50;;;;;;;20.07;5.70;;;;;;;12.42;nan;101735.44;6054506;23;20489;-89
2022/01/04 04:44:18;;;;;;;17.57;5.80;;;;;;;12.34;nan;101722.63;6077570;23;20399;-87
2022/01/04 04:46:47;;;;;;;18.40;5.30;;;;;;;12.36;nan;101720.56;6054368;23;20489;-88
2022/01/04 04:49:15;;;;;;;15.37;7.23;;;;;;;12.34;nan;101706.19;6078194;23;20407;-89
2022/01/04 04:51:44;;;;;;;24.43;11.03;;;;;;;12.33;nan;101709.97;6077449;23;20402;-89
2022/01/04 04:54:12;;;;;;;32.57;14.70;;;;;;;12.38;nan;101713.03;6101830;23;20410;-89
2022/01/04 04:56:40;;;;;;;36.33;17.90;;;;;;;12.39;nan;101714.72;6077521;23;20411;-88
2022/01/04 04:59:10;;;;;;;46.63;23.27;;;;;;;12.37;nan;101705.84;6078230;23;20430;-88
2022/01/04 05:01:38;;;;;;;35.27;16.33;;;;;;;12.48;nan;101728.41;6101122;23;20470;-87
2022/01/04 05:04:07;;;;;;;23.27;9.40;;;;;;;12.44;nan;101712.31;6077917;23;20485;-88
2022/01/04 05:06:37;;;;;;;26.90;11.67;;;;;;;12.46;nan;101720.34;6127425;23;20414;-87
2022/01/04 05:09:04;;;;;;;21.33;8.30;;;;;;;12.42;nan;101711.63;6101584;23;20723;-87
2022/01/04 05:11:32;;;;;;;16.17;7.70;;;;;;;12.43;nan;101716.09;6077979;23;20390;-88
2022/01/04 05:14:00;;;;;;;13.23;5.47;;;;;;;12.47;nan;101715.72;6077904;23;20402;-88
2022/01/04 05:16:27;;;;;;;12.47;6.13;;;;;;;12.48;nan;101712.81;6054121;23;20497;-88
2022/01/04 05:18:55;;;;;;;22.90;10.00;;;;;;;12.48;nan;101706.47;6077803;23;20438;-88
2022/01/04 05:21:24;;;;;;;40.40;17.47;;;;;;;12.47;nan;101699.28;6077477;23;20410;-87
2022/01/04 05:23:54;;;;;;;25.70;13.90;;;;;;;12.49;nan;101702.69;6100842;23;20393;-87
2022/01/04 05:26:22;;;;;;;17.70;9.70;;;;;;;12.44;nan;101695.00;6008900;23;20417;-88
2022/01/04 05:28:52;;;;;;;19.63;6.50;;;;;;;12.51;nan;101706.91;5940882;23;20489;-89
2022/01/04 05:31:21;;;;;;;18.20;5.53;;;;;;;12.49;nan;101697.19;5941844;23;20406;-88
2022/01/04 05:33:49;;;;;;;11.20;5.30;;;;;;;12.52;nan;101691.31;5963378;23;20413;-88
2022/01/04 05:36:18;;;;;;;12.20;5.00;;;;;;;12.50;nan;101683.31;5940249;23;20425;-88
2022/01/04 05:38:47;;;;;;;17.57;7.10;;;;;;;12.55;nan;101680.00;5958980;23;20488;-89
2022/01/04 05:41:15;;;;;;;19.27;8.80;;;;;;;12.55;nan;101680.00;6014692;23;20487;-88
2022/01/04 05:43:43;;;;;;;12.43;6.77;;;;;;;12.53;nan;101676.56;6013911;23;20462;-89
2022/01/04 05:46:11;;;;;;;24.30;9.10;;;;;;;12.51;nan;101673.19;5991445;23;20414;-89
2022/01/04 05:48:39;;;;;;;14.30;6.33;;;;;;;12.53;nan;101665.63;6014397;23;20431;-88
2022/01/04 05:51:06;;;;;;;11.50;6.30;;;;;;;12.57;nan;101672.44;6055357;23;20782;-89
2022/01/04 05:53:34;;;;;;;10.70;5.63;;;;;;;12.58;nan;101674.16;6106434;23;20409;-89
2022/01/04 05:56:02;;;;;;;16.57;7.60;;;;;;;12.59;nan;101670.38;6082737;23;20826;-89
2022/01/04 05:58:33;;;;;;;22.30;8.93;;;;;;;12.53;nan;101649.16;6106489;23;20409;-89
2022/01/04 06:01:01;;;;;;;13.87;6.10;;;;;;;12.52;nan;101658.41;6106576;23;20409;-89
2022/01/04 06:03:30;;;;;;;13.07;5.83;;;;;;;12.52;nan;101666.66;6106920;23;20417;-89
2022/01/04 06:05:59;;;;;;;15.53;4.73;;;;;;;12.52;nan;101662.00;6130676;23;20409;-88
2022/01/04 06:08:33;;;;;;;8.97;4.47;;;;;;;12.59;nan;101675.84;6083174;23;20486;-89
2022/01/04 06:11:07;;;;;;;12.17;4.73;;;;;;;12.57;nan;101664.22;6110371;23;20496;-89
2022/01/04 06:16:26;;;;;;;8.10;4.23;;;;;;;12.60;nan;101669.34;6095318;23;20409;-88
2022/01/04 06:18:54;;;;;;;13.30;4.73;;;;;;;12.60;nan;101666.59;6106019;23;20438;-89
2022/01/04 06:21:21;;;;;;;9.27;5.23;;;;;;;12.59;nan;101659.41;6106774;23;20464;-88
2022/01/04 06:23:50;;;;;;;11.97;5.43;;;;;;;12.64;nan;101662.44;6106518;23;20425;-89
2022/01/04 06:26:18;;;;;;;13.33;4.77;;;;;;;12.57;nan;101658.72;6130491;23;20410;-88
2022/01/04 06:28:46;;;;;;;11.33;5.97;;;;;;;12.61;nan;101651.84;6106459;23;20394;-88
2022/01/04 06:31:19;;;;;;;8.47;4.60;;;;;;;12.62;nan;101648.06;6082404;23;20414;-88
2022/01/04 06:33:47;;;;;;;7.90;4.17;;;;;;;12.67;nan;101646.47;6106378;23;20947;-88
2022/01/04 06:36:15;;;;;;;8.83;4.87;;;;;;;12.63;nan;101641.53;6106047;23;20867;-88
2022/01/04 06:38:42;;;;;;;9.20;5.17;;;;;;;12.66;nan;101644.78;6070296;23;20438;-89
2022/01/04 06:41:10;;;;;;;11.87;5.17;;;;;;;12.65;nan;101647.69;6076808;23;20920;-89
2022/01/04 06:43:38;;;;;;;10.50;5.53;;;;;;;12.66;nan;101654.91;6077150;23;20886;-89
2022/01/04 06:46:08;;;;;;;8.83;4.63;;;;;;;12.64;nan;101646.00;6125233;23;20413;-89
2022/01/04 06:48:36;;;;;;;12.40;4.07;;;;;;;12.60;nan;101644.66;6101360;23;20497;-89
2022/01/04 06:51:04;;;;;;;10.00;5.30;;;;;;;12.63;nan;101650.63;6100370;23;20437;-89
2022/01/04 06:53:32;;;;;;;10.67;5.67;;;;;;;12.70;nan;101657.06;6100654;23;20415;-89
2022/01/04 06:56:02;;;;;;;7.90;4.80;;;;;;;12.63;nan;101653.38;6077379;23;20822;-88
2022/01/04 06:58:30;;;;;;;9.87;5.07;;;;;;;12.66;nan;101649.41;6076984;23;20414;-88
2022/01/04 07:00:58;;;;;;;9.97;4.77;;;;;;;12.66;nan;101638.44;6077385;23;20442;-88
2022/01/04 07:03:29;;;;;;;16.03;6.43;;;;;;;12.72;nan;101645.91;6101237;23;20402;-89
2022/01/04 07:05:57;;;;;;;12.47;7.37;;;;;;;12.67;nan;101640.13;6101021;23;20390;-88
2022/01/04 07:08:25;;;;;;;16.07;6.00;;;;;;;12.75;nan;101654.63;6078295;23;20406;-88
2022/01/04 07:10:52;;;;;;;11.10;5.90;;;;;;;12.68;nan;101642.69;6102585;23;20477;-88
2022/01/04 07:13:20;;;;;;;11.87;6.10;;;;;;;12.65;nan;101631.25;6079136;23;20775;-89
2022/01/04 07:15:48;;;;;;;8.27;5.00;;;;;;;12.64;nan;101626.78;6079204;23;20485;-88
2022/01/04 07:18:15;;;;;;;12.87;5.57;;;;;;;12.77;nan;101651.69;6102625;23;20502;-89
2022/01/04 07:20:43;;;;;;;10.37;5.63;;;;;;;12.73;nan;101636.63;6079103;23;20525;-89
2022/01/04 07:23:11;;;;;;;10.37;5.83;;;;;;;12.72;nan;101634.94;6078935;23;20560;-88
2022/01/04 07:25:39;;;;;;;11.50;6.80;;;;;;;12.72;nan;101626.69;6101822;23;20854;-88
2022/01/04 07:28:07;;;;;;;20.20;8.63;;;;;;;12.82;nan;101653.88;6103353;23;20406;-89
2022/01/04 07:30:34;;;;;;;12.60;6.60;;;;;;;12.79;nan;101655.09;6102756;23;20406;-89
2022/01/04 07:33:02;;;;;;;12.50;5.93;;;;;;;12.73;nan;101645.72;6078823;23;20432;-89
2022/01/04 07:35:30;;;;;;;9.57;5.13;;;;;;;12.71;nan;101639.56;6078815;23;20399;-88
2022/01/04 07:37:59;;;;;;;10.10;5.13;;;;;;;12.80;nan;101645.84;6078749;23;20398;-89
2022/01/04 07:43:44;;;;;;;13.53;5.20;;;;;;;12.72;nan;101629.44;6096519;23;20393;-88
2022/01/04 08:38:07;;;;;;;7.77;5.10;;;;;;;13.04;nan;101645.59;5675252;25;20459;-88
2022/01/04 08:41:39;;;;;;;8.87;4.87;;;;;;;13.02;nan;101644.06;5682976;25;20451;-88
2022/01/04 08:47:44;;;;;;;10.80;4.83;;;;;;;13.08;nan;101721.00;5637484;25;20411;-88
2022/01/04 08:50:49;;;;;;;4.77;3.20;;;;;;;12.97;nan;101726.09;5597538;25;20406;-89
2022/01/04 08:53:25;;;;;;;25.80;4.43;;;;;;;13.27;nan;101718.81;5617795;25;20423;-87
2022/01/04 09:00:18;;;;;;;20.00;3.97;;;;;;;13.76;100.00;101755.66;5110661;27;20505;-89
2022/01/04 09:03:30;;;;;;;22.57;3.80;;;;;;;13.76;100.00;101788.63;5110342;28;20448;-89
2022/01/04 09:10:54;;;;;;;21.23;2.90;;;;;;;13.84;100.00;101820.69;5048400;28;20513;-89
2022/01/04 09:32:38;;;;;;;13.37;1.70;;;;;;;14.22;100.00;101837.91;5068302;28;20418;-90
2022/01/04 09:39:42;;;;;;;10.60;1.80;;;;;;;14.45;100.00;101855.16;5067633;28;20599;-89
2022/01/04 09:49:51;;;;;;;9.80;1.63;;;;;;;14.38;100.00;101828.59;4988494;28;20437;-88
2022/01/04 11:40:44;;;;;;;6.67;2.63;;;;;;;15.53;91.56;101812.88;5056321;28;20816;-88
2022/01/04 11:43:44;;;;;;;7.73;1.70;;;;;;;15.26;92.58;101832.97;5083879;28;20543;-88
2022/01/04 11:46:12;;;;;;;7.37;1.93;;;;;;;15.08;93.86;101823.28;4972290;28;20610;-89
2022/01/04 11:48:43;;;;;;;8.20;2.60;;;;;;;15.10;95.18;101828.59;4964059;28;20480;-89
2022/01/04 11:51:29;;;;;;;7.87;1.63;;;;;;;15.04;95.33;101849.50;4976354;28;20442;-91
2022/01/04 11:54:15;;;;;;;6.20;1.47;;;;;;;15.03;95.45;101850.53;4976253;28;20439;-88
2022/01/04 11:56:53;;;;;;;7.00;1.87;;;;;;;14.94;96.78;101824.19;4976162;28;20453;-87
2022/01/04 11:59:26;;;;;;;7.70;2.10;;;;;;;14.91;98.46;101840.25;4957414;28;20899;-87
2022/01/04 12:01:56;;;;;;;4.73;1.43;;;;;;;14.89;99.94;101843.19;4961338;28;20464;-91
2022/01/04 12:04:51;;;;;;;3.87;0.90;;;;;;;14.81;100.00;101843.34;4971252;28;20927;-88
2022/01/04 12:07:41;;;;;;;5.13;2.37;;;;;;;14.83;100.00;101813.69;4975326;28;20959;-88
2022/01/04 12:10:18;;;;;;;8.07;1.70;;;;;;;14.91;100.00;101824.59;4991344;28;20484;-87
2022/01/04 12:13:11;;;;;;;6.40;1.13;;;;;;;15.06;100.00;101819.88;4991304;28;20434;-87
2022/01/04 12:16:10;;;;;;;4.70;0.90;;;;;;;15.02;100.00;101793.78;4984801;28;20998;-93
2022/01/04 12:18:38;;;;;;;3.87;1.07;;;;;;;15.10;100.00;101809.31;4928531;28;20523;-91
2022/01/04 12:21:28;;;;;;;5.40;1.07;;;;;;;15.07;100.00;101813.31;4952850;28;20544;-92
2022/01/04 12:23:57;;;;;;;5.43;1.17;;;;;;;15.02;100.00;101810.28;5000498;28;20437;-89
2022/01/04 12:26:31;;;;;;;4.10;1.00;;;;;;;15.05;100.00;101804.41;4985120;28;20444;-90
2022/01/04 12:29:32;;;;;;;3.20;0.70;;;;;;;15.23;100.00;101806.66;5005541;28;20456;-90
2022/01/04 12:32:04;;;;;;;6.67;0.87;;;;;;;15.25;98.67;101803.72;4915671;29;20465;-90
2022/01/04 12:34:38;;;;;;;3.80;1.00;;;;;;;15.34;98.40;101810.81;4899674;29;20457;-90
2022/01/04 12:37:16;;;;;;;7.23;0.70;;;;;;;15.49;96.20;101808.81;4900512;29;20456;-90
2022/01/04 12:39:47;;;;;;;5.00;0.90;;;;;;;15.73;96.01;101786.34;4885608;29;20453;-90
2022/01/04 12:42:16;;;;;;;8.20;0.87;;;;;;;16.02;95.73;101806.44;4901699;29;20956;-90
2022/01/04 12:44:49;;;;;;;7.13;1.20;;;;;;;16.16;93.07;101794.44;4933161;29;20485;-88
2022/01/04 12:47:20;;;;;;;2.43;0.57;;;;;;;16.09;92.75;101801.81;4916671;29;21011;-91
2022/01/04 12:49:48;;;;;;;3.80;0.60;;;;;;;16.30;93.63;101801.69;4902272;29;20811;-90
2022/01/04 12:52:18;;;;;;;6.77;0.90;;;;;;;16.56;93.20;101782.47;4929010;29;20479;-89
2022/01/04 12:54:48;;;;;;;9.70;0.90;;;;;;;16.75;90.97;101797.41;4930563;28;20447;-89
2022/01/04 12:57:26;;;;;;;9.47;1.17;;;;;;;16.86;89.79;101785.75;4956898;28;20486;-89
2022/01/04 12:59:59;;;;;;;2.70;0.83;;;;;;;17.01;89.58;101804.03;4972698;28;20442;-89
2022/01/04 13:02:28;;;;;;;1.30;0.50;;;;;;;17.10;88.40;101800.03;4994361;28;20450;-90
2022/01/04 13:05:06;;;;;;;7.53;1.27;;;;;;;17.13;88.15;101786.63;4975922;28;20438;-90
2022/01/04 13:07:35;;;;;;;3.47;0.60;;;;;;;17.02;88.12;101784.50;4969988;28;20540;-90
2022/01/04 13:10:10;;;;;;;10.47;0.97;;;;;;;16.88;88.96;101786.41;5015349;28;20983;-89
2022/01/04 13:12:50;;;;;;;6.57;1.00;;;;;;;16.89;90.17;101793.63;5054139;28;20442;-89
2022/01/04 13:15:24;;;;;;;5.13;0.77;;;;;;;16.99;90.25;101793.22;5040212;28;20528;-89
2022/01/04 13:17:54;;;;;;;3.63;0.77;;;;;;;17.06;89.87;101774.75;5039530;28;21003;-90
2022/01/04 13:20:27;;;;;;;4.37;1.03;;;;;;;17.07;89.68;101776.44;5039437;28;20781;-90
2022/01/04 13:22:57;;;;;;;4.93;1.40;;;;;;;17.00;90.83;101789.38;5018722;28;20461;-89
2022/01/04 13:25:24;;;;;;;6.57;1.30;;;;;;;16.94;91.09;101795.75;5039061;28;20454;-89
2022/01/04 13:27:53;;;;;;;5.60;0.83;;;;;;;16.88;92.67;101796.59;5036659;28;20959;-90
2022/01/04 13:30:25;;;;;;;7.40;0.90;;;;;;;16.95;93.76;101783.63;5054871;28;20449;-90
2022/01/04 13:33:17;;;;;;;4.00;0.93;;;;;;;16.97;92.13;101776.00;5023242;28;20484;-90
2022/01/04 13:35:49;;;;;;;7.57;2.17;;;;;;;16.99;92.38;101789.59;5058944;28;20940;-90
2022/01/04 13:38:22;;;;;;;3.70;0.90;;;;;;;17.02;92.53;101790.03;5031305;28;20964;-90
2022/01/04 13:40:50;;;;;;;3.40;1.00;;;;;;;17.10;92.82;101773.25;5041847;28;20944;-90
2022/01/04 13:43:27;;;;;;;10.50;2.10;;;;;;;17.05;92.69;101797.91;5045076;28;20868;-90
2022/01/04 13:45:57;;;;;;;14.73;2.13;;;;;;;16.97;91.79;101800.84;5071004;27;20459;-90
2022/01/04 13:48:26;;;;;;;11.70;1.00;;;;;;;16.82;92.10;101795.53;5074659;27;20524;-90
2022/01/04 13:50:55;;;;;;;12.03;1.50;;;;;;;16.58;91.38;101780.34;5064236;28;20472;-90
2022/01/04 13:53:24;;;;;;;5.40;1.17;;;;;;;16.68;91.63;101770.84;5077438;27;20443;-90
2022/01/04 13:56:01;;;;;;;8.20;1.63;;;;;;;16.72;91.48;101769.38;5075872;28;20440;-90
2022/01/04 13:58:49;;;;;;;3.83;1.03;;;;;;;16.74;91.55;101783.84;5080390;28;21006;-91
2022/01/04 14:01:23;;;;;;;5.63;1.27;;;;;;;16.80;92.10;101777.47;5080508;28;20965;-90
2022/01/04 14:03:59;;;;;;;8.70;1.90;;;;;;;16.97;91.86;101770.47;5089111;28;20794;-90
2022/01/04 14:06:42;;;;;;;8.70;1.37;;;;;;;17.14;90.77;101780.03;5071331;28;20539;-90
2022/01/04 14:09:57;;;;;;;6.93;1.70;;;;;;;17.36;89.61;101772.38;5046991;28;20495;-90
2022/01/04 14:12:27;;;;;;;7.97;1.47;;;;;;;17.34;86.33;101770.91;5097005;28;20498;-91
2022/01/04 14:14:58;;;;;;;11.77;1.03;;;;;;;17.28;86.45;101767.09;5077931;28;20490;-90
2022/01/04 14:17:30;;;;;;;5.10;1.00;;;;;;;17.38;86.28;101766.66;5062358;28;20520;-89
2022/01/04 14:20:10;;;;;;;5.67;1.57;;;;;;;17.41;85.39;101763.47;5082773;28;20476;-91
2022/01/04 14:22:39;;;;;;;6.73;0.90;;;;;;;17.39;85.80;101791.31;5065264;28;20447;-90
2022/01/04 14:25:13;;;;;;;11.60;1.70;;;;;;;17.49;86.05;101749.44;5081171;28;20439;-90
2022/01/04 14:27:48;;;;;;;9.80;1.43;;;;;;;17.79;85.55;101766.41;5082261;28;20444;-90
2022/01/04 14:30:17;;;;;;;6.80;1.20;;;;;;;18.03;85.55;101781.47;5082151;28;20802;-91
2022/01/04 14:32:50;;;;;;;7.67;2.00;;;;;;;18.00;86.44;101785.50;5049509;28;20805;-89
2022/01/04 14:35:25;;;;;;;9.00;1.80;;;;;;;17.76;88.33;101809.19;5061555;28;20487;-91
2022/01/04 14:37:56;;;;;;;8.00;1.60;;;;;;;17.25;92.22;101808.97;5063279;28;20796;-89
2022/01/04 14:40:28;;;;;;;11.60;2.00;;;;;;;16.98;94.09;101797.03;5061325;28;20487;-90
2022/01/04 14:42:58;;;;;;;9.87;1.73;;;;;;;16.86;96.77;101795.97;5064290;28;20508;-90
2022/01/04 14:45:26;;;;;;;11.43;1.90;;;;;;;16.54;98.57;101798.41;5077398;28;20457;-90
2022/01/04 14:47:55;;;;;;;16.73;1.90;;;;;;;16.20;99.78;101798.44;5080372;28;20520;-90
2022/01/04 14:50:26;;;;;;;19.47;2.37;;;;;;;16.20;100.00;101803.97;5080707;28;20531;-90
2022/01/04 14:52:56;;;;;;;12.10;1.80;;;;;;;16.32;99.60;101807.88;5077549;28;20969;-89
2022/01/04 14:55:28;;;;;;;4.70;1.30;;;;;;;16.35;99.17;101812.97;5085197;28;20476;-90
2022/01/04 14:57:55;;;;;;;13.17;2.30;;;;;;;16.27;97.04;101821.41;5095839;28;20444;-90
2022/01/04 15:00:24;;;;;;;7.43;1.00;;;;;;;16.17;96.39;101820.94;5077077;28;20445;-88
2022/01/04 15:02:52;;;;;;;5.37;1.50;;;;;;;16.18;96.11;101819.88;5047723;28;20456;-91
2022/01/04 15:05:19;;;;;;;5.43;1.13;;;;;;;16.20;94.42;101834.31;5086378;28;20991;-90
2022/01/04 15:07:47;;;;;;;8.90;1.57;;;;;;;16.21;92.37;101880.16;5080789;28;20444;-90
2022/01/04 15:10:14;;;;;;;8.33;0.93;;;;;;;16.20;91.32;101859.13;5059829;28;20502;-89
2022/01/04 15:12:42;;;;;;;4.70;0.73;;;;;;;15.98;89.41;101861.13;5043976;28;20444;-90
2022/01/04 15:15:10;;;;;;;5.63;1.00;;;;;;;15.90;89.43;101888.88;5044137;28;20445;-90
2022/01/04 15:17:37;;;;;;;6.47;1.60;;;;;;;15.79;90.63;101876.47;5052276;28;20459;-90
2022/01/04 15:20:06;;;;;;;11.80;1.20;;;;;;;15.71;91.55;101868.38;5060766;28;21037;-89